sensor_id;sensor_type;location;lat;lon;timestamp;pressure;altitude;pressure_sealevel;temperature;humidity
70976;BME280;58635;51.198;6.010;2023-09-30T00:02:16;102358.81;;;18.42;59.06
70976;BME280;58635;51.198;6.010;2023-09-30T00:04:43;102355.16;;;18.44;59.10
70976;BME280;58635;51.198;6.010;2023-09-30T00:07:09;102355.16;;;18.44;59.12
70976;BME280;58635;51.198;6.010;2023-09-30T00:09:35;102350.94;;;18.42;58.94
70976;BME280;58635;51.198;6.010;2023-09-30T00:12:02;102352.56;;;18.44;59.33
70976;BME280;58635;51.198;6.010;2023-09-30T00:14:28;102345.50;;;18.44;59.22
70976;BME280;58635;51.198;6.010;2023-09-30T00:16:55;102342.66;;;18.46;59.39
70976;BME280;58635;51.198;6.010;2023-09-30T00:19:22;102358.38;;;18.46;59.08
70976;BME280;58635;51.198;6.010;2023-09-30T00:21:49;102369.47;;;18.48;59.65
70976;BME280;58635;51.198;6.010;2023-09-30T00:24:15;102377.34;;;18.48;59.55
70976;BME280;58635;51.198;6.010;2023-09-30T00:26:41;102381.56;;;18.49;59.46
70976;BME280;58635;51.198;6.010;2023-09-30T00:29:08;102372.09;;;18.48;59.63
70976;BME280;58635;51.198;6.010;2023-09-30T00:31:34;102376.34;;;18.49;59.71
70976;BME280;58635;51.198;6.010;2023-09-30T00:34:00;102365.22;;;18.47;59.81
70976;BME280;58635;51.198;6.010;2023-09-30T00:36:27;102370.28;;;18.48;59.90
70976;BME280;58635;51.198;6.010;2023-09-30T00:38:54;102380.78;;;18.48;59.49
70976;BME280;58635;51.198;6.010;2023-09-30T00:41:20;102380.78;;;18.48;59.41
70976;BME280;58635;51.198;6.010;2023-09-30T00:43:46;102379.97;;;18.48;59.97
70976;BME280;58635;51.198;6.010;2023-09-30T00:46:33;102383.78;;;18.45;59.60
70976;BME280;58635;51.198;6.010;2023-09-30T00:49:01;102381.38;;;18.44;59.63
70976;BME280;58635;51.198;6.010;2023-09-30T00:51:29;102376.13;;;18.44;59.73
70976;BME280;58635;51.198;6.010;2023-09-30T00:53:58;102362.22;;;18.43;59.75
70976;BME280;58635;51.198;6.010;2023-09-30T00:56:27;102364.84;;;18.43;59.50
70976;BME280;58635;51.198;6.010;2023-09-30T00:58:54;102369.69;;;18.39;59.39
70976;BME280;58635;51.198;6.010;2023-09-30T01:01:21;102378.56;;;18.38;59.13
70976;BME280;58635;51.198;6.010;2023-09-30T01:03:48;102385.03;;;18.36;59.44
70976;BME280;58635;51.198;6.010;2023-09-30T01:06:15;102388.63;;;18.35;59.25
70976;BME280;58635;51.198;6.010;2023-09-30T01:08:41;102390.44;;;18.34;59.78
70976;BME280;58635;51.198;6.010;2023-09-30T01:11:08;102397.72;;;18.32;59.75
70976;BME280;58635;51.198;6.010;2023-09-30T01:13:36;102400.75;;;18.29;59.44
70976;BME280;58635;51.198;6.010;2023-09-30T01:16:07;102396.31;;;18.30;59.42
70976;BME280;58635;51.198;6.010;2023-09-30T01:18:36;102384.66;;;18.26;59.75
70976;BME280;58635;51.198;6.010;2023-09-30T01:21:04;102392.50;;;18.26;60.13
70976;BME280;58635;51.198;6.010;2023-09-30T01:23:32;102386.69;;;18.24;59.78
70976;BME280;58635;51.198;6.010;2023-09-30T01:26:02;102389.09;;;18.25;59.94
70976;BME280;58635;51.198;6.010;2023-09-30T01:28:29;102380.63;;;18.23;60.05
70976;BME280;58635;51.198;6.010;2023-09-30T01:30:57;102389.47;;;18.22;59.90
70976;BME280;58635;51.198;6.010;2023-09-30T01:33:24;102396.75;;;18.20;60.03
70976;BME280;58635;51.198;6.010;2023-09-30T01:35:51;102404.81;;;18.19;59.83
70976;BME280;58635;51.198;6.010;2023-09-30T01:38:17;102404.22;;;18.17;60.14
70976;BME280;58635;51.198;6.010;2023-09-30T01:40:44;102414.91;;;18.15;59.81
70976;BME280;58635;51.198;6.010;2023-09-30T01:43:10;102410.25;;;18.10;59.69
70976;BME280;58635;51.198;6.010;2023-09-30T01:45:40;102420.13;;;18.08;59.66
70976;BME280;58635;51.198;6.010;2023-09-30T01:48:07;102416.09;;;18.06;60.09
70976;BME280;58635;51.198;6.010;2023-09-30T01:50:33;102413.69;;;18.04;59.62
70976;BME280;58635;51.198;6.010;2023-09-30T01:52:59;102405.44;;;18.01;59.61
70976;BME280;58635;51.198;6.010;2023-09-30T01:55:26;102402.41;;;17.97;59.80
70976;BME280;58635;51.198;6.010;2023-09-30T01:57:52;102411.28;;;17.96;60.00
70976;BME280;58635;51.198;6.010;2023-09-30T02:00:19;102412.91;;;17.91;59.67
70976;BME280;58635;51.198;6.010;2023-09-30T02:02:45;102412.31;;;17.89;60.01
70976;BME280;58635;51.198;6.010;2023-09-30T02:05:12;102410.06;;;17.86;59.95
70976;BME280;58635;51.198;6.010;2023-09-30T02:07:39;102408.66;;;17.83;59.70
70976;BME280;58635;51.198;6.010;2023-09-30T02:10:06;102396.78;;;17.80;59.70
70976;BME280;58635;51.198;6.010;2023-09-30T02:12:33;102397.81;;;17.79;59.72
70976;BME280;58635;51.198;6.010;2023-09-30T02:14:59;102398.59;;;17.80;59.78
70976;BME280;58635;51.198;6.010;2023-09-30T02:17:26;102398.81;;;17.78;60.11
70976;BME280;58635;51.198;6.010;2023-09-30T02:19:52;102398.22;;;17.76;59.68
70976;BME280;58635;51.198;6.010;2023-09-30T02:22:21;102399.19;;;17.75;59.91
70976;BME280;58635;51.198;6.010;2023-09-30T02:24:47;102395.16;;;17.73;60.39
70976;BME280;58635;51.198;6.010;2023-09-30T02:27:14;102391.16;;;17.70;59.88
70976;BME280;58635;51.198;6.010;2023-09-30T02:29:41;102393.78;;;17.70;59.96
70976;BME280;58635;51.198;6.010;2023-09-30T02:32:07;102393.97;;;17.69;59.96
70976;BME280;58635;51.198;6.010;2023-09-30T02:34:35;102396.75;;;17.67;59.82
70976;BME280;58635;51.198;6.010;2023-09-30T02:37:01;102411.06;;;17.65;60.18
70976;BME280;58635;51.198;6.010;2023-09-30T02:39:27;102424.31;;;17.63;60.44
70976;BME280;58635;51.198;6.010;2023-09-30T02:41:54;102416.47;;;17.63;60.51
70976;BME280;58635;51.198;6.010;2023-09-30T02:44:20;102412.25;;;17.62;60.19
70976;BME280;58635;51.198;6.010;2023-09-30T02:46:47;102409.63;;;17.62;60.09
70976;BME280;58635;51.198;6.010;2023-09-30T02:49:13;102401.97;;;17.61;60.25
70976;BME280;58635;51.198;6.010;2023-09-30T02:51:39;102407.41;;;17.59;60.07
70976;BME280;58635;51.198;6.010;2023-09-30T02:54:06;102408.22;;;17.60;60.55
70976;BME280;58635;51.198;6.010;2023-09-30T02:56:32;102408.22;;;17.60;60.59
70976;BME280;58635;51.198;6.010;2023-09-30T02:58:58;102405.81;;;17.58;60.30
70976;BME280;58635;51.198;6.010;2023-09-30T03:01:26;102414.25;;;17.60;60.61
70976;BME280;58635;51.198;6.010;2023-09-30T03:03:52;102401.38;;;17.59;60.09
70976;BME280;58635;51.198;6.010;2023-09-30T03:06:19;102397.97;;;17.58;60.40
70976;BME280;58635;51.198;6.010;2023-09-30T03:08:45;102398.38;;;17.55;60.43
70976;BME280;58635;51.198;6.010;2023-09-30T03:11:12;102407.44;;;17.52;60.19
70976;BME280;58635;51.198;6.010;2023-09-30T03:13:39;102400.56;;;17.51;60.08
70976;BME280;58635;51.198;6.010;2023-09-30T03:16:08;102406.19;;;17.48;60.45
70976;BME280;58635;51.198;6.010;2023-09-30T03:18:35;102412.63;;;17.46;60.56
70976;BME280;58635;51.198;6.010;2023-09-30T03:21:02;102411.84;;;17.45;60.19
70976;BME280;58635;51.198;6.010;2023-09-30T03:23:34;102405.41;;;17.41;60.22
70976;BME280;58635;51.198;6.010;2023-09-30T03:26:01;102404.97;;;17.38;60.32
70976;BME280;58635;51.198;6.010;2023-09-30T03:28:27;102412.22;;;17.36;60.08
70976;BME280;58635;51.198;6.010;2023-09-30T03:30:55;102407.38;;;17.33;60.21
70976;BME280;58635;51.198;6.010;2023-09-30T03:33:22;102399.94;;;17.30;60.34
70976;BME280;58635;51.198;6.010;2023-09-30T03:35:49;102406.34;;;17.27;60.27
70976;BME280;58635;51.198;6.010;2023-09-30T03:38:15;102403.13;;;17.25;60.13
70976;BME280;58635;51.198;6.010;2023-09-30T03:40:44;102399.31;;;17.21;60.18
70976;BME280;58635;51.198;6.010;2023-09-30T03:43:14;102402.94;;;17.20;60.04
70976;BME280;58635;51.198;6.010;2023-09-30T03:45:40;102394.66;;;17.16;60.22
70976;BME280;58635;51.198;6.010;2023-09-30T03:48:07;102396.47;;;17.16;60.25
70976;BME280;58635;51.198;6.010;2023-09-30T03:50:35;102383.78;;;17.13;59.94
70976;BME280;58635;51.198;6.010;2023-09-30T03:53:05;102376.97;;;17.12;60.04
70976;BME280;58635;51.198;6.010;2023-09-30T03:55:33;102376.97;;;17.12;60.11
70976;BME280;58635;51.198;6.010;2023-09-30T03:58:00;102391.84;;;17.11;60.43
70976;BME280;58635;51.198;6.010;2023-09-30T04:00:26;102381.59;;;17.10;60.60
70976;BME280;58635;51.198;6.010;2023-09-30T04:02:52;102383.19;;;17.11;60.67
70976;BME280;58635;51.198;6.010;2023-09-30T04:05:25;102378.16;;;17.09;60.47
70976;BME280;58635;51.198;6.010;2023-09-30T04:07:58;102378.97;;;17.10;60.36
70976;BME280;58635;51.198;6.010;2023-09-30T04:10:24;102392.25;;;17.08;60.66
70976;BME280;58635;51.198;6.010;2023-09-30T04:12:51;102392.84;;;17.10;60.67
70976;BME280;58635;51.198;6.010;2023-09-30T04:15:18;102396.47;;;17.09;60.67
70976;BME280;58635;51.198;6.010;2023-09-30T04:17:44;102400.09;;;17.08;61.09
70976;BME280;58635;51.198;6.010;2023-09-30T04:20:11;102402.91;;;17.07;60.85
70976;BME280;58635;51.198;6.010;2023-09-30T04:22:42;102402.91;;;17.07;61.13
70976;BME280;58635;51.198;6.010;2023-09-30T04:25:17;102411.91;;;17.04;60.86
70976;BME280;58635;51.198;6.010;2023-09-30T04:27:44;102421.56;;;17.04;61.02
70976;BME280;58635;51.198;6.010;2023-09-30T04:30:14;102414.72;;;17.03;60.99
70976;BME280;58635;51.198;6.010;2023-09-30T04:32:41;102413.94;;;17.02;61.17
70976;BME280;58635;51.198;6.010;2023-09-30T04:35:08;102412.53;;;17.00;61.13
70976;BME280;58635;51.198;6.010;2023-09-30T04:37:34;102420.16;;;17.01;60.92
70976;BME280;58635;51.198;6.010;2023-09-30T04:40:07;102414.94;;;17.01;61.22
70976;BME280;58635;51.198;6.010;2023-09-30T04:42:42;102409.09;;;16.99;61.39
70976;BME280;58635;51.198;6.010;2023-09-30T04:45:11;102408.28;;;16.99;60.95
70976;BME280;58635;51.198;6.010;2023-09-30T04:47:38;102413.53;;;16.99;61.15
70976;BME280;58635;51.198;6.010;2023-09-30T04:50:06;102417.94;;;16.98;61.29
70976;BME280;58635;51.198;6.010;2023-09-30T04:52:34;102406.88;;;16.96;61.27
70976;BME280;58635;51.198;6.010;2023-09-30T04:55:01;102404.06;;;16.98;61.16
70976;BME280;58635;51.198;6.010;2023-09-30T04:57:27;102419.34;;;16.94;61.42
70976;BME280;58635;51.198;6.010;2023-09-30T04:59:54;102416.28;;;16.90;61.01
70976;BME280;58635;51.198;6.010;2023-09-30T05:02:21;102417.31;;;16.89;61.14
70976;BME280;58635;51.198;6.010;2023-09-30T05:04:47;102410.06;;;16.85;61.14
70976;BME280;58635;51.198;6.010;2023-09-30T05:07:13;102421.50;;;16.84;61.31
70976;BME280;58635;51.198;6.010;2023-09-30T05:09:40;102421.50;;;16.84;61.14
70976;BME280;58635;51.198;6.010;2023-09-30T05:12:07;102419.72;;;16.84;60.98
70976;BME280;58635;51.198;6.010;2023-09-30T05:14:35;102425.13;;;16.83;60.99
70976;BME280;58635;51.198;6.010;2023-09-30T05:17:02;102427.09;;;16.81;61.17
70976;BME280;58635;51.198;6.010;2023-09-30T05:19:31;102425.50;;;16.80;60.95
70976;BME280;58635;51.198;6.010;2023-09-30T05:22:03;102430.13;;;16.78;61.22
70976;BME280;58635;51.198;6.010;2023-09-30T05:24:29;102430.31;;;16.76;60.87
70976;BME280;58635;51.198;6.010;2023-09-30T05:26:55;102414.84;;;16.75;61.17
70976;BME280;58635;51.198;6.010;2023-09-30T05:29:22;102413.84;;;16.76;60.85
70976;BME280;58635;51.198;6.010;2023-09-30T05:31:48;102414.84;;;16.75;61.14
70976;BME280;58635;51.198;6.010;2023-09-30T05:34:15;102419.25;;;16.74;60.86
70976;BME280;58635;51.198;6.010;2023-09-30T05:36:41;102418.66;;;16.72;61.03
70976;BME280;58635;51.198;6.010;2023-09-30T05:39:08;102428.50;;;16.70;60.96
70976;BME280;58635;51.198;6.010;2023-09-30T05:41:36;102431.44;;;16.67;60.99
70976;BME280;58635;51.198;6.010;2023-09-30T05:44:04;102440.91;;;16.68;60.97
70976;BME280;58635;51.198;6.010;2023-09-30T05:46:30;102446.13;;;16.68;60.96
70976;BME280;58635;51.198;6.010;2023-09-30T05:48:57;102444.69;;;16.65;60.44
70976;BME280;58635;51.198;6.010;2023-09-30T05:51:23;102442.28;;;16.64;61.00
70976;BME280;58635;51.198;6.010;2023-09-30T05:53:49;102451.94;;;16.63;60.77
70976;BME280;58635;51.198;6.010;2023-09-30T05:56:16;102447.69;;;16.62;61.01
70976;BME280;58635;51.198;6.010;2023-09-30T05:58:42;102452.94;;;16.62;60.85
70976;BME280;58635;51.198;6.010;2023-09-30T06:01:09;102453.94;;;16.61;60.85
70976;BME280;58635;51.198;6.010;2023-09-30T06:03:46;102449.91;;;16.59;60.65
70976;BME280;58635;51.198;6.010;2023-09-30T06:06:16;102447.28;;;16.59;60.69
70976;BME280;58635;51.198;6.010;2023-09-30T06:08:42;102441.44;;;16.57;60.47
70976;BME280;58635;51.198;6.010;2023-09-30T06:11:21;102449.09;;;16.58;60.57
70976;BME280;58635;51.198;6.010;2023-09-30T06:13:51;102438.41;;;16.53;60.39
70976;BME280;58635;51.198;6.010;2023-09-30T06:16:19;102445.69;;;16.58;60.36
70976;BME280;58635;51.198;6.010;2023-09-30T06:18:46;102448.09;;;16.59;60.41
70976;BME280;58635;51.198;6.010;2023-09-30T06:21:14;102456.34;;;16.63;60.57
70976;BME280;58635;51.198;6.010;2023-09-30T06:23:42;102448.31;;;16.64;60.37
70976;BME280;58635;51.198;6.010;2023-09-30T06:26:09;102450.56;;;16.67;60.40
70976;BME280;58635;51.198;6.010;2023-09-30T06:28:35;102450.00;;;16.72;60.25
70976;BME280;58635;51.198;6.010;2023-09-30T06:31:07;102459.84;;;16.77;60.36
70976;BME280;58635;51.198;6.010;2023-09-30T06:33:37;102459.47;;;16.80;60.21
70976;BME280;58635;51.198;6.010;2023-09-30T06:36:11;102457.69;;;16.87;60.55
70976;BME280;58635;51.198;6.010;2023-09-30T06:38:40;102455.31;;;16.92;60.55
70976;BME280;58635;51.198;6.010;2023-09-30T06:41:08;102458.97;;;16.98;60.56
70976;BME280;58635;51.198;6.010;2023-09-30T06:43:35;102461.78;;;17.03;60.65
70976;BME280;58635;51.198;6.010;2023-09-30T06:46:08;102454.19;;;17.08;60.59
70976;BME280;58635;51.198;6.010;2023-09-30T06:48:37;102450.78;;;17.14;60.25
70976;BME280;58635;51.198;6.010;2023-09-30T06:51:06;102449.41;;;17.18;60.51
70976;BME280;58635;51.198;6.010;2023-09-30T06:53:32;102453.81;;;17.24;60.82
70976;BME280;58635;51.198;6.010;2023-09-30T06:55:59;102451.81;;;17.26;60.81
70976;BME280;58635;51.198;6.010;2023-09-30T06:58:25;102463.31;;;17.32;60.82
70976;BME280;58635;51.198;6.010;2023-09-30T07:00:52;102470.56;;;17.36;60.68
70976;BME280;58635;51.198;6.010;2023-09-30T07:03:21;102469.16;;;17.40;60.74
70976;BME280;58635;51.198;6.010;2023-09-30T07:05:48;102468.56;;;17.45;60.87
70976;BME280;58635;51.198;6.010;2023-09-30T07:08:16;102465.34;;;17.49;60.70
70976;BME280;58635;51.198;6.010;2023-09-30T07:10:44;102468.41;;;17.53;60.51
70976;BME280;58635;51.198;6.010;2023-09-30T07:13:12;102483.50;;;17.58;60.69
70976;BME280;58635;51.198;6.010;2023-09-30T07:15:38;102484.50;;;17.63;61.13
70976;BME280;58635;51.198;6.010;2023-09-30T07:18:05;102493.78;;;17.66;61.10
70976;BME280;58635;51.198;6.010;2023-09-30T07:20:31;102509.91;;;17.69;60.83
70976;BME280;58635;51.198;6.010;2023-09-30T07:22:59;102504.28;;;17.72;60.87
70976;BME280;58635;51.198;6.010;2023-09-30T07:25:27;102512.16;;;17.79;61.00
70976;BME280;58635;51.198;6.010;2023-09-30T07:27:53;102515.97;;;17.83;60.79
70976;BME280;58635;51.198;6.010;2023-09-30T07:30:20;102504.09;;;17.87;60.98
70976;BME280;58635;51.198;6.010;2023-09-30T07:32:46;102510.34;;;17.93;60.86
70976;BME280;58635;51.198;6.010;2023-09-30T07:35:13;102509.94;;;17.96;60.87
70976;BME280;58635;51.198;6.010;2023-09-30T07:37:43;102514.78;;;17.99;60.99
70976;BME280;58635;51.198;6.010;2023-09-30T07:40:10;102521.84;;;18.05;60.89
70976;BME280;58635;51.198;6.010;2023-09-30T07:42:37;102523.66;;;18.11;60.92
70976;BME280;58635;51.198;6.010;2023-09-30T07:45:03;102529.91;;;18.17;61.21
70976;BME280;58635;51.198;6.010;2023-09-30T07:47:30;102553.66;;;18.22;60.96
70976;BME280;58635;51.198;6.010;2023-09-30T07:49:59;102560.34;;;18.24;60.99
70976;BME280;58635;51.198;6.010;2023-09-30T07:52:25;102557.91;;;18.29;61.54
70976;BME280;58635;51.198;6.010;2023-09-30T07:54:52;102565.16;;;18.34;61.57
70976;BME280;58635;51.198;6.010;2023-09-30T07:57:18;102553.66;;;18.35;61.27
70976;BME280;58635;51.198;6.010;2023-09-30T07:59:46;102559.94;;;18.40;61.00
70976;BME280;58635;51.198;6.010;2023-09-30T08:02:13;102558.50;;;18.45;61.59
70976;BME280;58635;51.198;6.010;2023-09-30T08:04:39;102556.50;;;18.47;61.28
70976;BME280;58635;51.198;6.010;2023-09-30T08:07:05;102549.66;;;18.52;61.74
70976;BME280;58635;51.198;6.010;2023-09-30T08:09:32;102553.25;;;18.58;61.69
70976;BME280;58635;51.198;6.010;2023-09-30T08:11:58;102545.81;;;18.61;61.87
70976;BME280;58635;51.198;6.010;2023-09-30T08:14:24;102544.81;;;18.69;61.86
70976;BME280;58635;51.198;6.010;2023-09-30T08:16:51;102542.19;;;18.76;61.72
70976;BME280;58635;51.198;6.010;2023-09-30T08:19:18;102535.53;;;18.80;61.79
70976;BME280;58635;51.198;6.010;2023-09-30T08:21:46;102541.56;;;18.87;62.17
70976;BME280;58635;51.198;6.010;2023-09-30T08:24:13;102548.59;;;18.93;62.15
70976;BME280;58635;51.198;6.010;2023-09-30T08:26:39;102545.75;;;19.01;62.15
70976;BME280;58635;51.198;6.010;2023-09-30T08:29:06;102540.50;;;19.08;61.88
70976;BME280;58635;51.198;6.010;2023-09-30T08:31:33;102533.41;;;19.15;61.90
70976;BME280;58635;51.198;6.010;2023-09-30T08:33:59;102542.06;;;19.22;61.84
70976;BME280;58635;51.198;6.010;2023-09-30T08:36:25;102539.81;;;19.25;61.19
70976;BME280;58635;51.198;6.010;2023-09-30T08:38:52;102537.56;;;19.29;61.56
70976;BME280;58635;51.198;6.010;2023-09-30T08:41:32;102534.34;;;19.34;61.85
70976;BME280;58635;51.198;6.010;2023-09-30T08:44:00;102521.81;;;19.36;61.75
70976;BME280;58635;51.198;6.010;2023-09-30T08:46:34;102537.72;;;19.41;61.62
70976;BME280;58635;51.198;6.010;2023-09-30T08:49:02;102537.31;;;19.44;61.87
70976;BME280;58635;51.198;6.010;2023-09-30T08:51:35;102544.34;;;19.50;61.47
70976;BME280;58635;51.198;6.010;2023-09-30T08:54:02;102541.53;;;19.58;61.52
70976;BME280;58635;51.198;6.010;2023-09-30T08:56:31;102532.59;;;19.66;61.61
70976;BME280;58635;51.198;6.010;2023-09-30T08:59:03;102534.34;;;19.78;61.47
70976;BME280;58635;51.198;6.010;2023-09-30T09:01:30;102523.56;;;19.86;61.07
70976;BME280;58635;51.198;6.010;2023-09-30T09:03:57;102526.16;;;19.93;61.25
70976;BME280;58635;51.198;6.010;2023-09-30T09:06:24;102532.38;;;19.99;61.07
70976;BME280;58635;51.198;6.010;2023-09-30T09:08:51;102524.25;;;20.00;60.90
70976;BME280;58635;51.198;6.010;2023-09-30T09:11:18;102519.63;;;20.02;60.72
70976;BME280;58635;51.198;6.010;2023-09-30T09:14:04;102517.16;;;20.07;61.08
70976;BME280;58635;51.198;6.010;2023-09-30T09:16:30;102513.69;;;20.13;60.91
70976;BME280;58635;51.198;6.010;2023-09-30T09:18:56;102509.75;;;20.23;60.84
70976;BME280;58635;51.198;6.010;2023-09-30T09:21:23;102515.75;;;20.30;60.69
70976;BME280;58635;51.198;6.010;2023-09-30T09:23:53;102524.41;;;20.37;60.16
70976;BME280;58635;51.198;6.010;2023-09-30T09:26:26;102531.63;;;20.41;59.92
70976;BME280;58635;51.198;6.010;2023-09-30T09:28:57;102537.72;;;20.42;59.23
70976;BME280;58635;51.198;6.010;2023-09-30T09:31:29;102543.56;;;20.44;59.39
70976;BME280;58635;51.198;6.010;2023-09-30T09:33:56;102547.16;;;20.50;59.48
70976;BME280;58635;51.198;6.010;2023-09-30T09:36:38;102545.09;;;20.52;59.40
70976;BME280;58635;51.198;6.010;2023-09-30T09:39:04;102545.91;;;20.52;59.44
70976;BME280;58635;51.198;6.010;2023-09-30T09:41:31;102546.84;;;20.58;59.72
70976;BME280;58635;51.198;6.010;2023-09-30T09:43:59;102549.44;;;20.64;59.22
70976;BME280;58635;51.198;6.010;2023-09-30T09:46:27;102552.38;;;20.75;59.19
70976;BME280;58635;51.198;6.010;2023-09-30T09:48:53;102570.19;;;20.72;58.89
70976;BME280;58635;51.198;6.010;2023-09-30T09:51:21;102573.41;;;20.75;58.87
70976;BME280;58635;51.198;6.010;2023-09-30T09:53:48;102567.75;;;20.71;58.77
70976;BME280;58635;51.198;6.010;2023-09-30T09:56:15;102572.44;;;20.69;58.86
70976;BME280;58635;51.198;6.010;2023-09-30T09:58:43;102566.97;;;20.70;58.86
70976;BME280;58635;51.198;6.010;2023-09-30T10:01:10;102563.53;;;20.70;58.86
70976;BME280;58635;51.198;6.010;2023-09-30T10:03:38;102562.50;;;20.71;58.68
70976;BME280;58635;51.198;6.010;2023-09-30T10:06:05;102566.38;;;20.68;58.49
70976;BME280;58635;51.198;6.010;2023-09-30T10:08:36;102569.16;;;20.73;58.40
70976;BME280;58635;51.198;6.010;2023-09-30T10:11:04;102558.44;;;20.75;58.51
70976;BME280;58635;51.198;6.010;2023-09-30T10:13:50;102575.75;;;20.83;58.32
70976;BME280;58635;51.198;6.010;2023-09-30T10:24:57;102567.88;;;21.01;57.33
70976;BME280;58635;51.198;6.010;2023-09-30T10:30:13;102574.59;;;20.97;56.93
70976;BME280;58635;51.198;6.010;2023-09-30T10:40:49;102585.31;;;20.95;56.30
70976;BME280;58635;51.198;6.010;2023-09-30T10:43:40;102586.88;;;21.03;55.90
70976;BME280;58635;51.198;6.010;2023-09-30T10:48:52;102569.75;;;21.12;55.70
70976;BME280;58635;51.198;6.010;2023-09-30T10:51:19;102564.41;;;21.19;55.56
70976;BME280;58635;51.198;6.010;2023-09-30T10:53:53;102560.09;;;21.24;55.41
70976;BME280;58635;51.198;6.010;2023-09-30T10:56:23;102567.13;;;21.30;55.46
70976;BME280;58635;51.198;6.010;2023-09-30T10:58:52;102559.75;;;21.39;55.15
70976;BME280;58635;51.198;6.010;2023-09-30T11:01:20;102565.50;;;21.48;54.79
70976;BME280;58635;51.198;6.010;2023-09-30T11:03:47;102552.94;;;21.50;54.43
70976;BME280;58635;51.198;6.010;2023-09-30T11:06:19;102550.53;;;21.48;54.25
70976;BME280;58635;51.198;6.010;2023-09-30T11:08:55;102543.78;;;21.52;53.95
70976;BME280;58635;51.198;6.010;2023-09-30T11:11:39;102544.50;;;21.59;53.88
70976;BME280;58635;51.198;6.010;2023-09-30T11:16:48;102531.81;;;21.68;53.94
70976;BME280;58635;51.198;6.010;2023-09-30T11:19:15;102539.59;;;21.75;53.42
70976;BME280;58635;51.198;6.010;2023-09-30T11:21:42;102537.91;;;21.80;52.96
70976;BME280;58635;51.198;6.010;2023-09-30T11:24:10;102526.13;;;21.83;52.44
70976;BME280;58635;51.198;6.010;2023-09-30T11:26:37;102525.66;;;21.86;52.21
70976;BME280;58635;51.198;6.010;2023-09-30T11:29:08;102532.22;;;21.95;52.35
70976;BME280;58635;51.198;6.010;2023-09-30T11:31:37;102519.53;;;22.04;52.06
70976;BME280;58635;51.198;6.010;2023-09-30T11:34:04;102522.06;;;22.10;51.96
70976;BME280;58635;51.198;6.010;2023-09-30T11:36:31;102529.88;;;22.17;51.12
70976;BME280;58635;51.198;6.010;2023-09-30T11:38:58;102516.22;;;22.20;51.16
70976;BME280;58635;51.198;6.010;2023-09-30T11:41:32;102525.41;;;22.29;50.65
70976;BME280;58635;51.198;6.010;2023-09-30T11:44:10;102515.09;;;22.39;50.55
70976;BME280;58635;51.198;6.010;2023-09-30T11:46:51;102514.84;;;22.53;50.14
70976;BME280;58635;51.198;6.010;2023-09-30T11:51:59;102511.38;;;22.75;49.59
70976;BME280;58635;51.198;6.010;2023-09-30T11:54:30;102502.06;;;22.85;49.13
70976;BME280;58635;51.198;6.010;2023-09-30T11:56:57;102491.41;;;22.91;49.20
70976;BME280;58635;51.198;6.010;2023-09-30T11:59:25;102479.69;;;22.99;48.64
70976;BME280;58635;51.198;6.010;2023-09-30T12:01:51;102468.97;;;23.05;48.40
70976;BME280;58635;51.198;6.010;2023-09-30T12:04:18;102469.16;;;23.16;47.66
70976;BME280;58635;51.198;6.010;2023-09-30T12:06:46;102472.00;;;23.26;47.43
70976;BME280;58635;51.198;6.010;2023-09-30T12:09:15;102482.97;;;23.34;47.00
70976;BME280;58635;51.198;6.010;2023-09-30T12:11:49;102486.25;;;23.42;46.59
70976;BME280;58635;51.198;6.010;2023-09-30T12:14:15;102489.69;;;23.42;45.96
70976;BME280;58635;51.198;6.010;2023-09-30T12:16:42;102489.13;;;23.40;45.67
70976;BME280;58635;51.198;6.010;2023-09-30T12:19:11;102487.84;;;23.43;45.96
70976;BME280;58635;51.198;6.010;2023-09-30T12:21:39;102487.72;;;23.49;46.28
70976;BME280;58635;51.198;6.010;2023-09-30T12:24:06;102485.53;;;23.58;45.94
70976;BME280;58635;51.198;6.010;2023-09-30T12:26:35;102480.06;;;23.65;45.82
70976;BME280;58635;51.198;6.010;2023-09-30T12:29:04;102480.97;;;23.70;45.81
70976;BME280;58635;51.198;6.010;2023-09-30T12:31:31;102482.31;;;23.73;45.07
70976;BME280;58635;51.198;6.010;2023-09-30T12:33:59;102476.38;;;23.66;45.43
70976;BME280;58635;51.198;6.010;2023-09-30T12:36:26;102479.28;;;23.64;45.13
70976;BME280;58635;51.198;6.010;2023-09-30T12:38:52;102481.66;;;23.66;45.59
70976;BME280;58635;51.198;6.010;2023-09-30T12:41:18;102478.22;;;23.65;45.66
70976;BME280;58635;51.198;6.010;2023-09-30T12:43:47;102485.69;;;23.68;45.63
70976;BME280;58635;51.198;6.010;2023-09-30T12:46:14;102487.59;;;23.73;45.18
70976;BME280;58635;51.198;6.010;2023-09-30T12:48:40;102480.09;;;23.81;44.99
70976;BME280;58635;51.198;6.010;2023-09-30T12:51:07;102467.34;;;23.95;44.86
70976;BME280;58635;51.198;6.010;2023-09-30T12:53:35;102465.41;;;24.07;44.14
70976;BME280;58635;51.198;6.010;2023-09-30T12:56:02;102467.06;;;24.13;43.92
70976;BME280;58635;51.198;6.010;2023-09-30T12:58:28;102463.72;;;24.18;43.08
70976;BME280;58635;51.198;6.010;2023-09-30T13:00:56;102452.69;;;24.26;42.96
70976;BME280;58635;51.198;6.010;2023-09-30T13:03:23;102450.47;;;24.35;42.69
70976;BME280;58635;51.198;6.010;2023-09-30T13:05:49;102451.34;;;24.40;42.24
70976;BME280;58635;51.198;6.010;2023-09-30T13:08:16;102441.06;;;24.44;42.37
70976;BME280;58635;51.198;6.010;2023-09-30T13:10:43;102432.38;;;24.48;42.63
70976;BME280;58635;51.198;6.010;2023-09-30T13:13:10;102435.66;;;24.56;43.00
70976;BME280;58635;51.198;6.010;2023-09-30T13:15:37;102438.34;;;24.61;42.74
70976;BME280;58635;51.198;6.010;2023-09-30T13:18:04;102443.16;;;24.64;42.87
70976;BME280;58635;51.198;6.010;2023-09-30T13:20:31;102432.81;;;24.62;42.66
70976;BME280;58635;51.198;6.010;2023-09-30T13:22:58;102437.63;;;24.65;42.30